createdAt,value
2022-10-19T00:06:36.412Z,2.83
2022-10-19T00:13:38.119Z,2.50
2022-10-19T00:20:39.673Z,2.40
2022-10-19T00:27:41.227Z,3.15
2022-10-19T00:34:42.889Z,2.63
2022-10-19T00:41:45.502Z,2.20
2022-10-19T00:48:47.084Z,2.35
2022-10-19T00:55:48.691Z,2.90
2022-10-19T01:02:50.300Z,2.20
2022-10-19T01:09:52.680Z,2.17
2022-10-19T01:17:00.664Z,2.35
2022-10-19T01:24:02.141Z,2.47
2022-10-19T01:31:25.578Z,2.13
2022-10-19T01:38:46.014Z,1.70
2022-10-19T01:52:49.567Z,1.88
2022-10-19T01:59:51.119Z,2.28
2022-10-19T02:06:53.305Z,1.80
2022-10-19T02:13:58.614Z,2.17
2022-10-19T02:21:06.557Z,2.28
2022-10-19T02:28:08.352Z,2.03
2022-10-19T02:35:10.423Z,2.22
2022-10-19T02:42:22.094Z,2.00
2022-10-19T02:49:23.639Z,2.20
2022-10-19T02:56:25.203Z,2.38
2022-10-19T03:03:26.747Z,2.08
2022-10-19T03:10:28.700Z,2.53
2022-10-19T03:17:30.279Z,2.22
2022-10-19T03:24:32.033Z,1.75
2022-10-19T03:31:33.641Z,2.10
2022-10-19T03:38:35.194Z,1.85
2022-10-19T03:45:37.029Z,1.70
2022-10-19T03:52:38.613Z,2.00
2022-10-19T03:59:40.141Z,1.80
2022-10-19T04:06:42.830Z,1.65
2022-10-19T04:13:44.364Z,1.70
2022-10-19T04:20:45.915Z,1.60
2022-10-19T04:27:47.514Z,1.73
2022-10-19T04:34:49.056Z,1.60
2022-10-19T04:41:50.663Z,1.60
2022-10-19T04:48:52.449Z,1.70
2022-10-19T04:55:54.066Z,1.60
2022-10-19T05:02:55.628Z,1.90
2022-10-19T05:09:57.208Z,4.72
2022-10-19T05:16:58.753Z,3.80
2022-10-19T05:24:00.373Z,1.60
2022-10-19T05:31:11.193Z,1.42
2022-10-19T05:38:12.719Z,1.30
2022-10-19T05:45:14.342Z,1.63
2022-10-19T05:52:17.662Z,1.90
2022-10-19T05:59:20.137Z,1.90
2022-10-19T06:06:22.654Z,1.85
2022-10-19T06:13:24.207Z,3.28
2022-10-19T06:20:29.211Z,2.00
2022-10-19T06:27:32.055Z,2.03
2022-10-19T06:34:33.927Z,2.22
2022-10-19T06:41:35.551Z,1.88
2022-10-19T06:48:57.215Z,2.22
2022-10-19T06:55:59.201Z,2.67
2022-10-19T07:03:01.005Z,1.95
2022-10-19T07:10:02.979Z,1.63
2022-10-19T07:17:05.874Z,2.15
2022-10-19T07:24:08.259Z,1.55
2022-10-19T07:31:11.291Z,3.33
2022-10-19T07:38:12.857Z,1.80
2022-10-19T07:45:14.437Z,1.90
2022-10-19T07:52:16.051Z,1.63
2022-10-19T07:59:17.745Z,2.30
2022-10-19T08:06:19.717Z,2.00
2022-10-19T08:13:21.377Z,1.77
2022-10-19T08:20:22.923Z,2.30
2022-10-19T08:27:24.641Z,2.03
2022-10-19T08:34:26.279Z,1.77
2022-10-19T08:41:39.749Z,1.60
2022-10-19T08:48:43.058Z,2.50
2022-10-19T08:56:04.766Z,2.83
2022-10-19T09:03:37.803Z,1.73
2022-10-19T09:10:49.105Z,1.80
2022-10-19T09:17:50.662Z,2.20
2022-10-19T09:24:54.197Z,2.53
2022-10-19T09:31:59.822Z,1.90
2022-10-19T09:39:01.431Z,1.63
2022-10-19T09:46:19.807Z,1.80
2022-10-19T09:53:22.092Z,1.88
2022-10-19T10:00:25.608Z,1.70
2022-10-19T10:07:27.505Z,1.52
2022-10-19T10:14:31.733Z,1.60
2022-10-19T10:21:46.221Z,1.92
2022-10-19T10:28:49.335Z,1.35
2022-10-19T10:35:53.622Z,1.10
2022-10-19T10:42:56.857Z,1.42
2022-10-19T10:50:01.093Z,1.30
2022-10-19T10:57:16.592Z,1.23
2022-10-19T11:04:21.546Z,1.45
2022-10-19T11:11:46.535Z,2.75
2022-10-19T11:19:01.216Z,1.30
2022-10-19T11:26:22.971Z,1.02
2022-10-19T11:33:34.327Z,1.33
2022-10-19T11:40:59.669Z,1.52
2022-10-19T11:48:18.350Z,1.50
2022-10-19T11:55:44.460Z,1.27
2022-10-19T12:03:17.287Z,1.65
2022-10-19T12:10:27.873Z,2.20
2022-10-19T12:17:30.942Z,1.30
2022-10-19T12:24:32.697Z,1.30
2022-10-19T12:31:34.301Z,1.65
2022-10-19T12:38:50.744Z,1.48
2022-10-19T12:46:37.887Z,2.08
2022-10-19T12:53:48.759Z,1.75
2022-10-19T13:01:00.146Z,1.80
2022-10-19T13:08:03.194Z,1.77
2022-10-19T13:15:05.045Z,1.40
2022-10-19T13:22:25.576Z,1.70
2022-10-19T13:29:28.644Z,1.67
2022-10-19T13:36:30.492Z,1.42
2022-10-19T13:43:34.146Z,1.38
2022-10-19T13:50:54.050Z,1.77
2022-10-19T13:58:19.800Z,1.38
2022-10-19T14:12:41.718Z,1.70
2022-10-19T14:19:48.376Z,1.38
2022-10-19T14:26:49.985Z,1.70
2022-10-19T14:33:54.190Z,1.75
2022-10-19T14:40:56.542Z,1.50
2022-10-19T14:48:03.062Z,1.60
2022-10-19T14:55:08.553Z,1.50
2022-10-19T15:02:44.229Z,1.80
2022-10-19T15:09:51.940Z,1.38
2022-10-19T15:17:05.901Z,1.50
2022-10-19T15:24:14.971Z,1.48
2022-10-19T15:31:20.575Z,1.83
2022-10-19T15:38:26.073Z,1.90
2022-10-19T15:45:31.807Z,2.53
2022-10-19T15:52:33.597Z,1.70
2022-10-19T15:59:35.177Z,1.90
2022-10-19T16:06:39.043Z,1.98
2022-10-19T16:13:40.694Z,2.10
2022-10-19T16:20:44.087Z,2.13
2022-10-19T16:27:45.702Z,3.17
2022-10-19T16:34:47.289Z,3.55
2022-10-19T16:41:48.874Z,2.45
2022-10-19T16:48:50.982Z,2.53
2022-10-19T16:55:52.544Z,2.25
2022-10-19T17:02:54.092Z,2.50
2022-10-19T17:09:55.710Z,2.40
2022-10-19T17:16:57.315Z,3.20
2022-10-19T17:24:00.049Z,2.50
2022-10-19T17:31:03.576Z,2.65
2022-10-19T17:38:05.130Z,2.97
2022-10-19T17:45:07.301Z,3.65
2022-10-19T17:52:08.876Z,3.10
2022-10-19T17:59:10.434Z,2.60
2022-10-19T18:06:19.924Z,2.85
2022-10-19T18:13:21.515Z,4.28
2022-10-19T18:20:23.063Z,3.92
2022-10-19T18:27:24.708Z,3.20
2022-10-19T18:34:26.333Z,2.88
2022-10-19T18:41:29.550Z,3.00
2022-10-19T18:48:31.124Z,3.05
2022-10-19T18:55:32.676Z,2.60
2022-10-19T19:02:46.028Z,2.70
2022-10-19T19:09:50.034Z,2.67
2022-10-19T19:16:51.601Z,2.28
2022-10-19T19:23:53.658Z,2.55
2022-10-19T19:30:55.244Z,2.25
2022-10-19T19:37:56.815Z,2.55
2022-10-19T19:44:58.377Z,2.10
2022-10-19T19:51:59.973Z,2.65
2022-10-19T19:59:03.652Z,2.50
2022-10-19T20:06:05.708Z,2.75
2022-10-19T20:13:07.358Z,2.10
2022-10-19T20:20:09.560Z,2.20
2022-10-19T20:27:11.128Z,2.40
2022-10-19T20:34:13.946Z,2.55
2022-10-19T20:41:15.853Z,2.38
2022-10-19T20:48:17.407Z,2.42
2022-10-19T20:55:20.653Z,2.53
2022-10-19T21:02:22.218Z,2.88
2022-10-19T21:09:23.852Z,2.22
2022-10-19T21:16:30.099Z,3.00
2022-10-19T21:23:31.638Z,2.35
2022-10-19T21:30:35.828Z,2.65
2022-10-19T21:37:37.483Z,2.47
2022-10-19T21:44:39.238Z,2.53
2022-10-19T21:51:53.459Z,2.00
2022-10-19T21:58:55.085Z,2.42
2022-10-19T22:05:56.702Z,2.90
2022-10-19T22:12:58.330Z,2.53
2022-10-19T22:19:59.931Z,2.60
2022-10-19T22:27:01.578Z,2.42
2022-10-19T22:34:11.313Z,2.72
2022-10-19T22:41:12.937Z,2.57
2022-10-19T22:48:15.313Z,2.42
2022-10-19T22:55:17.185Z,2.70
2022-10-19T23:02:18.852Z,2.40
2022-10-19T23:09:20.614Z,2.45
2022-10-19T23:16:22.250Z,2.97
2022-10-19T23:23:24.042Z,2.33
2022-10-19T23:30:25.615Z,2.78
2022-10-19T23:37:27.177Z,2.95
2022-10-19T23:44:28.750Z,2.50
2022-10-19T23:51:30.303Z,2.58
2022-10-19T23:58:31.876Z,2.50
